Startpagina
METAR-TAF:

METAR-TAF

Vliegvelden :

Shillong, India

breedte: 25-42-13N, lengte: 091-58-43E, hoogte: 887 m

Actueel weer

Dit bericht is 3 uur en het 43 minuten geleden gemaakt, om 08:30 UTC
Wind 3 kt uit het noordnoordoosten
Temperatuur 27°C
Vochtigheid 32%
Druk 1014 hPa
Zicht: 4000 m
Weinig wolken op 2000 ft
Heiigheid

METAR: VEBI 250830Z 02003KT 4000 HZ FEW020 27/09 Q1014

Tijdstip: 17:43 (12:13 UTC)

Verwachting

Dit bericht is 7 uur en het 13 minuten geleden gemaakt, om 05:00 UTC
Verwachting geldig van 25 om 06 UTC tot 25 om 15 UTC
Wind 5 kt uit het noordwesten
Zicht: 6000 m
Weinig wolken op 2000 ft
Wijzigt naar
van 25 om 13 UTC tot 25 om 15 UTC
Wind kt uit het noorden
Zicht: 3000 m
Heiigheid

TAF: VEBI 250500Z 2506/2515 32005KT 6000 FEW020 BECMG 2513/2515 00000KT 3000 HZ

Waarnemingen en weersverwachtingen van meer dan 4000 vliegvelden (METAR en TAF).

De beschikbare stations zijn de gele en rode punten op de kaart.

Ga met uw muis naar het station om de naam te zien.

Klik dan om waarnemingen en weersverwachtingen te zien.

kaart wijzigen: klik op de groene knoppen met een zwart kruis om in te zoomen, op de groene knop met een streepje om uit te zoomen of op de groene pijlen voor aangrenzende kaarten.


METAR-TAF: